Time;durP1;ratioP1;P1;durP2;ratioP2;P2;SDS_P1;SDS_P2;PMS_P1;PMS_P2;Temp;Humidity;BMP_temperature;BMP_pressure;BME280_temperature;BME280_humidity;BME280_pressure;Samples;Min_cycle;Max_cycle;Signal;HPM_P1;HPM_P2
2023/06/07 00:00:49;;;;;;;;;17.25;17.25;;;;;19.09;68.01;100774.03;5054569;28;45492;-65
2023/06/07 00:03:15;;;;;;;;;19.00;19.00;;;;;19.05;68.57;100763.69;5054881;28;45345;-64
2023/06/07 00:05:40;;;;;;;;;12.50;12.00;;;;;19.01;68.78;100776.38;5054105;28;45550;-64
2023/06/07 00:08:07;;;;;;;;;18.00;18.00;;;;;18.93;69.09;100763.59;5054369;28;54470;-64
2023/06/07 00:10:33;;;;;;;;;14.50;14.50;;;;;18.91;68.73;100769.97;5054676;28;45404;-64
2023/06/07 00:12:59;;;;;;;;;19.25;19.25;;;;;18.81;69.66;100767.97;5054958;28;45411;-64
2023/06/07 00:15:24;;;;;;;;;18.50;17.75;;;;;18.74;68.99;100769.38;5054903;28;45212;-66
2023/06/07 00:17:50;;;;;;;;;18.50;18.50;;;;;18.70;69.95;100775.91;5054791;28;45379;-64
2023/06/07 00:20:15;;;;;;;;;18.25;18.25;;;;;18.64;71.17;100781.66;5054847;28;45305;-68
2023/06/07 00:22:41;;;;;;;;;15.75;15.75;;;;;18.56;69.71;100776.91;5055251;28;45507;-67
2023/06/07 00:25:08;;;;;;;;;16.50;16.50;;;;;18.51;70.55;100776.34;5055117;28;45243;-66
2023/06/07 00:27:33;;;;;;;;;18.75;18.25;;;;;18.43;70.85;100776.91;5053857;28;46103;-68
2023/06/07 00:29:59;;;;;;;;;16.00;15.25;;;;;18.37;70.33;100769.34;5054436;28;45318;-68
2023/06/07 00:32:24;;;;;;;;;19.00;19.00;;;;;18.38;70.70;100779.88;5054866;28;45370;-65
2023/06/07 00:34:49;;;;;;;;;18.75;17.75;;;;;18.35;71.25;100776.59;5054900;28;45306;-67
2023/06/07 00:37:15;;;;;;;;;17.50;17.50;;;;;18.30;71.03;100776.06;5054375;28;48897;-66
2023/06/07 00:39:41;;;;;;;;;13.75;13.75;;;;;18.24;71.35;100787.97;5054688;28;47814;-66
2023/06/07 00:42:06;;;;;;;;;18.50;17.00;;;;;18.19;71.75;100775.00;5053014;28;45475;-67
2023/06/07 00:44:32;;;;;;;;;16.00;16.00;;;;;18.16;71.65;100787.66;5054708;28;45303;-66
2023/06/07 00:46:57;;;;;;;;;16.50;16.50;;;;;18.08;72.19;100774.88;5054256;28;46113;-66
2023/06/07 00:49:23;;;;;;;;;18.75;18.50;;;;;18.05;72.05;100781.25;5053900;28;54670;-67
2023/06/07 00:51:49;;;;;;;;;16.25;16.25;;;;;17.99;72.11;100775.47;5054440;28;45340;-64
2023/06/07 00:54:17;;;;;;;;;17.75;16.75;;;;;17.95;72.49;100783.66;5054713;28;45176;-63
2023/06/07 00:56:50;;;;;;;;;16.50;16.25;;;;;17.90;71.64;100772.47;5054443;28;45447;-64
2023/06/07 00:59:20;;;;;;;;;21.50;18.75;;;;;17.88;72.24;100774.38;5054046;28;45187;-63
2023/06/07 01:01:51;;;;;;;;;18.25;18.25;;;;;17.87;72.64;100772.69;5054251;28;45271;-62
2023/06/07 01:04:19;;;;;;;;;18.00;16.75;;;;;17.83;72.79;100773.00;5054626;28;45423;-63
2023/06/07 01:06:44;;;;;;;;;17.00;17.00;;;;;17.80;72.53;100769.59;5054423;28;46743;-63
2023/06/07 01:09:13;;;;;;;;;19.25;19.25;;;;;17.77;72.70;100766.28;5054268;28;45358;-64
2023/06/07 01:11:42;;;;;;;;;18.50;18.50;;;;;17.75;72.77;100769.06;5053979;28;45530;-65
2023/06/07 01:14:10;;;;;;;;;18.75;18.75;;;;;17.73;73.12;100770.97;5054590;28;45465;-67
2023/06/07 01:16:37;;;;;;;;;18.25;18.25;;;;;17.69;72.97;100765.94;5054183;28;45471;-64
2023/06/07 01:19:04;;;;;;;;;17.50;17.50;;;;;17.64;73.32;100764.47;5054154;28;45305;-70
2023/06/07 01:21:36;;;;;;;;;15.25;15.25;;;;;17.64;73.95;100766.28;5052701;28;45286;-66
2023/06/07 01:24:03;;;;;;;;;18.25;18.25;;;;;17.63;72.94;100765.41;5054359;28;45205;-67
2023/06/07 01:26:28;;;;;;;;;17.50;17.50;;;;;17.62;73.07;100762.88;5053943;28;46620;-67
2023/06/07 01:28:55;;;;;;;;;18.00;18.00;;;;;17.58;73.22;100759.56;5053973;28;45675;-68
2023/06/07 01:31:25;;;;;;;;;19.75;19.75;;;;;17.57;73.91;100765.81;5054235;28;45293;-68
2023/06/07 01:33:52;;;;;;;;;20.50;19.50;;;;;17.50;73.65;100757.41;5054083;28;45519;-69
2023/06/07 01:36:18;;;;;;;;;19.75;19.75;;;;;17.46;74.09;100760.38;5054246;28;46135;-63
2023/06/07 01:38:45;;;;;;;;;22.50;21.75;;;;;17.44;73.87;100751.66;5056702;28;45197;-64
2023/06/07 01:41:12;;;;;;;;;21.25;21.25;;;;;17.46;73.59;100752.41;5057128;28;45371;-69
2023/06/07 01:43:38;;;;;;;;;19.75;19.75;;;;;17.46;73.66;100747.06;5057756;28;46028;-69
2023/06/07 01:46:05;;;;;;;;;17.25;17.25;;;;;17.42;73.71;100753.56;5057102;28;46009;-67
2023/06/07 01:48:30;;;;;;;;;19.25;19.25;;;;;17.43;73.29;100755.25;5057277;28;45437;-66
2023/06/07 01:50:55;;;;;;;;;22.50;22.50;;;;;17.31;73.99;100755.13;5057254;28;45314;-65
2023/06/07 01:53:20;;;;;;;;;22.75;22.50;;;;;17.28;74.31;100760.63;5057510;28;45328;-65
2023/06/07 01:55:58;;;;;;;;;20.75;20.75;;;;;17.28;74.36;100760.63;5057309;28;45700;-66
2023/06/07 01:58:49;;;;;;;;;20.00;20.00;;;;;17.28;74.77;100762.44;5057465;28;45231;-66
2023/06/07 02:02:02;;;;;;;;;21.00;21.00;;;;;17.23;74.60;100754.78;5057425;28;45358;-64
2023/06/07 02:04:31;;;;;;;;;20.25;20.25;;;;;17.17;75.03;100750.69;5025117;28;45448;-63
2023/06/07 02:07:01;;;;;;;;;21.50;20.25;;;;;17.10;75.44;100748.56;5056750;28;46430;-63
2023/06/07 02:09:28;;;;;;;;;21.75;19.25;;;;;16.99;75.17;100736.81;5056873;28;45240;-67
2023/06/07 02:11:54;;;;;;;;;20.00;19.50;;;;;16.98;75.43;100743.09;5056634;28;45359;-66
2023/06/07 02:14:20;;;;;;;;;21.75;21.50;;;;;16.96;75.74;100741.44;5057230;28;45403;-64
2023/06/07 02:16:46;;;;;;;;;20.50;20.25;;;;;16.92;75.67;100733.66;5057034;28;45555;-63
2023/06/07 02:19:13;;;;;;;;;20.75;20.50;;;;;16.91;75.97;100741.72;5056640;28;45367;-62
2023/06/07 02:21:39;;;;;;;;;22.50;22.50;;;;;16.91;76.22;100741.72;5056661;28;45240;-63
2023/06/07 02:24:08;;;;;;;;;22.75;22.50;;;;;16.89;76.92;100738.31;5056905;28;45296;-67
2023/06/07 02:26:35;;;;;;;;;20.25;20.25;;;;;16.84;75.95;100738.63;5056433;28;46226;-69
2023/06/07 02:29:02;;;;;;;;;22.75;22.00;;;;;16.78;76.24;100734.53;5056601;28;46103;-63
2023/06/07 02:31:27;;;;;;;;;26.00;26.00;;;;;16.76;76.34;100731.13;5056638;28;45274;-65
2023/06/07 02:33:53;;;;;;;;;21.75;21.00;;;;;16.72;76.64;100729.63;5056828;28;45565;-64
2023/06/07 02:36:22;;;;;;;;;20.00;19.50;;;;;16.64;77.34;100731.91;5056880;28;45330;-66
2023/06/07 02:38:48;;;;;;;;;21.00;21.00;;;;;16.64;78.03;100729.25;5056908;28;45458;-64
2023/06/07 02:41:13;;;;;;;;;23.50;22.50;;;;;16.62;77.61;100731.16;5054897;28;45317;-64
2023/06/07 02:43:39;;;;;;;;;20.75;20.25;;;;;16.55;77.48;100727.19;5056598;28;45409;-66
2023/06/07 02:46:05;;;;;;;;;20.00;19.50;;;;;16.52;79.81;100738.00;5056202;28;45820;-64
2023/06/07 02:48:30;;;;;;;;;19.75;19.75;;;;;16.47;78.06;100731.19;5055968;28;45375;-65
2023/06/07 02:50:55;;;;;;;;;20.00;20.00;;;;;16.50;79.17;100735.47;5056085;28;45409;-65
2023/06/07 02:53:20;;;;;;;;;21.75;21.00;;;;;16.42;78.68;100730.63;5056108;28;53182;-65
2023/06/07 02:55:46;;;;;;;;;18.25;18.25;;;;;16.39;78.89;100736.13;5055834;28;46176;-63
2023/06/07 02:58:13;;;;;;;;;21.50;20.75;;;;;16.36;79.00;100731.84;5056110;28;45393;-64
2023/06/07 03:00:38;;;;;;;;;25.25;23.75;;;;;16.33;79.32;100736.50;5056535;28;45311;-63
2023/06/07 03:03:05;;;;;;;;;23.50;22.50;;;;;16.29;79.39;100729.69;5055889;28;45716;-64
2023/06/07 03:05:31;;;;;;;;;26.25;26.25;;;;;16.26;79.70;100741.31;5054351;28;46564;-67
2023/06/07 03:07:59;;;;;;;;;21.75;20.75;;;;;16.25;80.02;100733.47;5056137;28;45371;-70
2023/06/07 03:10:25;;;;;;;;;21.75;21.75;;;;;16.17;80.57;100724.19;5055571;28;45423;-66
2023/06/07 03:12:50;;;;;;;;;24.75;24.00;;;;;16.16;80.29;100726.91;5056061;28;45286;-69
2023/06/07 03:15:16;;;;;;;;;20.50;20.50;;;;;16.15;79.57;100728.72;5054148;28;46997;-68
2023/06/07 03:17:42;;;;;;;;;23.25;23.00;;;;;16.09;80.46;100720.28;5055634;28;46086;-69
2023/06/07 03:20:08;;;;;;;;;22.75;22.00;;;;;16.10;80.05;100730.81;5054679;28;45255;-66
2023/06/07 03:22:36;;;;;;;;;24.75;24.25;;;;;16.10;80.26;100735.25;5055812;28;45554;-67
2023/06/07 03:25:03;;;;;;;;;25.25;22.75;;;;;16.11;79.94;100736.97;5055643;28;46278;-67
2023/06/07 03:27:32;;;;;;;;;20.50;20.50;;;;;16.09;80.54;100733.53;5055781;28;45477;-66
2023/06/07 03:29:58;;;;;;;;;24.75;24.75;;;;;16.08;80.39;100732.72;5054268;28;45244;-66
2023/06/07 03:32:23;;;;;;;;;24.75;24.75;;;;;16.06;80.16;100726.63;5054860;28;45352;-68
2023/06/07 03:34:48;;;;;;;;;21.50;21.50;;;;;16.09;79.98;100731.75;5055793;28;47036;-67
2023/06/07 03:37:14;;;;;;;;;23.25;23.25;;;;;16.08;80.68;100727.41;5055507;28;45315;-70
2023/06/07 03:39:39;;;;;;;;;23.25;23.25;;;;;16.05;80.47;100720.47;5055501;28;45439;-66
2023/06/07 03:42:06;;;;;;;;;23.00;23.00;;;;;15.99;81.05;100723.50;5055710;28;45219;-68
2023/06/07 03:44:31;;;;;;;;;26.00;26.00;;;;;15.91;81.28;100717.81;5055447;28;45308;-70
2023/06/07 03:46:57;;;;;;;;;28.25;24.50;;;;;15.90;81.56;100724.91;5053880;28;45390;-66
2023/06/07 03:49:22;;;;;;;;;25.00;23.25;;;;;15.85;81.61;100726.94;5055769;28;45433;-67
2023/06/07 03:51:49;;;;;;;;;23.25;22.50;;;;;15.85;81.95;100721.63;5054545;28;45438;-69
2023/06/07 03:54:15;;;;;;;;;25.00;25.00;;;;;15.80;81.60;100710.44;5055549;28;46280;-67
2023/06/07 03:56:40;;;;;;;;;28.50;25.00;;;;;15.84;82.20;100727.88;5055101;28;45538;-67
2023/06/07 03:59:06;;;;;;;;;25.00;24.50;;;;;15.78;81.80;100731.78;5055590;28;45439;-66
2023/06/07 04:01:32;;;;;;;;;21.00;21.00;;;;;15.78;82.48;100730.91;5053416;28;45625;-67
2023/06/07 04:03:57;;;;;;;;;24.75;24.75;;;;;15.74;82.24;100724.06;5055272;28;45553;-66
2023/06/07 04:06:26;;;;;;;;;24.75;24.75;;;;;15.75;82.24;100728.44;5055449;28;45227;-67
2023/06/07 04:08:52;;;;;;;;;22.25;22.25;;;;;15.73;83.17;100727.66;5054016;28;45417;-68
2023/06/07 04:11:20;;;;;;;;;27.50;27.00;;;;;15.71;83.54;100733.09;5055064;28;45490;-65
2023/06/07 04:13:46;;;;;;;;;27.00;25.50;;;;;15.62;83.09;100723.03;5054930;28;45786;-69
2023/06/07 04:16:11;;;;;;;;;26.00;23.00;;;;;15.68;83.26;100738.56;5054970;28;45373;-68
2023/06/07 04:18:37;;;;;;;;;25.00;25.00;;;;;15.65;83.17;100729.94;5055074;28;45373;-68
2023/06/07 04:21:03;;;;;;;;;26.50;25.50;;;;;15.63;82.24;100730.88;5053882;28;45516;-70
2023/06/07 04:23:28;;;;;;;;;27.75;27.00;;;;;15.68;82.64;100732.41;5053502;28;46268;-66
2023/06/07 04:25:54;;;;;;;;;23.75;21.50;;;;;15.66;82.68;100734.28;5055117;28;45438;-67
2023/06/07 04:28:23;;;;;;;;;27.25;27.25;;;;;15.62;82.74;100745.06;5054961;28;45368;-67
2023/06/07 04:30:51;;;;;;;;;26.00;25.00;;;;;15.67;82.54;100744.81;5055012;28;45424;-68
2023/06/07 04:33:19;;;;;;;;;30.75;27.75;;;;;15.68;82.70;100743.00;5054568;28;45539;-66
2023/06/07 04:35:45;;;;;;;;;23.00;23.00;;;;;15.66;82.33;100742.25;5054546;28;45300;-67
2023/06/07 04:38:21;;;;;;;;;33.50;31.75;;;;;15.67;82.63;100749.25;5054935;28;45248;-65
2023/06/07 04:40:51;;;;;;;;;27.50;27.50;;;;;15.62;82.94;100742.44;5054701;28;45394;-66
2023/06/07 04:43:18;;;;;;;;;27.50;27.50;;;;;15.60;83.36;100749.63;5054591;28;45802;-66
2023/06/07 04:45:46;;;;;;;;;28.75;28.50;;;;;15.56;83.62;100745.44;5053276;28;45287;-66
2023/06/07 04:48:12;;;;;;;;;30.00;30.00;;;;;15.61;83.49;100755.78;5054557;28;45258;-69
2023/06/07 04:50:41;;;;;;;;;26.50;26.50;;;;;15.68;83.01;100758.91;5053116;28;45350;-68
2023/06/07 04:53:10;;;;;;;;;30.00;29.00;;;;;15.62;83.19;100763.63;5052887;28;47014;-66
2023/06/07 04:55:37;;;;;;;;;30.50;29.50;;;;;15.67;83.50;100766.03;5052962;28;45334;-67
2023/06/07 04:58:04;;;;;;;;;27.00;27.00;;;;;15.71;82.58;100770.22;5054161;28;45520;-67
2023/06/07 05:00:33;;;;;;;;;30.00;27.75;;;;;15.65;82.49;100761.75;5054732;28;45787;-66
2023/06/07 05:03:06;;;;;;;;;30.00;29.00;;;;;15.72;83.03;100768.41;5054221;28;45550;-69
2023/06/07 05:05:32;;;;;;;;;26.00;25.25;;;;;15.71;82.51;100764.03;5054156;28;45461;-67
2023/06/07 05:07:58;;;;;;;;;29.25;28.75;;;;;15.70;82.70;100767.63;5054751;28;45338;-69
2023/06/07 05:10:23;;;;;;;;;33.00;31.25;;;;;15.71;83.26;100772.00;5054566;28;45339;-66
2023/06/07 05:12:49;;;;;;;;;31.25;30.50;;;;;15.69;83.37;100773.88;5055794;28;45279;-69
2023/06/07 05:15:14;;;;;;;;;32.50;31.25;;;;;15.67;83.64;100766.03;5057744;28;45288;-69
2023/06/07 05:17:40;;;;;;;;;29.50;29.50;;;;;15.71;83.27;100766.69;5057918;28;45839;-66
2023/06/07 05:20:10;;;;;;;;;31.00;29.75;;;;;15.71;83.58;100756.94;5057998;28;45460;-68
2023/06/07 05:22:37;;;;;;;;;32.00;30.50;;;;;15.76;82.73;100760.19;5056219;28;45561;-70
2023/06/07 05:25:02;;;;;;;;;30.50;30.00;;;;;15.77;82.87;100758.38;5056230;28;45380;-69
2023/06/07 05:27:27;;;;;;;;;29.00;29.00;;;;;15.78;83.33;100763.59;5057903;28;45331;-69
2023/06/07 05:29:53;;;;;;;;;29.00;28.50;;;;;15.84;83.03;100758.88;5057825;28;45568;-65
2023/06/07 05:32:18;;;;;;;;;36.50;32.75;;;;;15.86;82.75;100747.22;5054687;28;47682;-70
2023/06/07 05:34:45;;;;;;;;;30.00;29.75;;;;;15.97;82.23;100762.53;5054186;28;45945;-69
2023/06/07 05:37:12;;;;;;;;;29.00;27.25;;;;;15.96;82.25;100760.81;5056978;28;45264;-69
2023/06/07 05:39:37;;;;;;;;;34.50;32.25;;;;;15.99;82.75;100754.50;5056403;28;45449;-65
2023/06/07 05:42:03;;;;;;;;;34.25;32.00;;;;;15.97;82.63;100745.78;5053766;28;47099;-67
2023/06/07 05:44:29;;;;;;;;;31.00;30.50;;;;;16.05;82.35;100746.16;5057305;28;45480;-67
2023/06/07 05:46:54;;;;;;;;;31.25;29.75;;;;;16.14;82.07;100750.03;5057194;28;45453;-70
2023/06/07 05:49:19;;;;;;;;;37.25;31.25;;;;;16.30;81.68;100760.56;5056190;28;45473;-71
2023/06/07 05:51:45;;;;;;;;;35.00;31.75;;;;;16.44;80.65;100755.25;5052571;28;54422;-70
2023/06/07 05:54:10;;;;;;;;;33.50;31.75;;;;;16.54;80.09;100754.69;5044366;28;45366;-70
2023/06/07 05:56:36;;;;;;;;;36.25;33.25;;;;;16.66;79.53;100759.22;5047608;28;45322;-66
2023/06/07 05:59:01;;;;;;;;;31.75;30.75;;;;;16.76;79.34;100743.56;5055200;28;45271;-67
2023/06/07 06:01:27;;;;;;;;;29.25;29.00;;;;;16.85;78.59;100758.06;5055327;28;47133;-68
2023/06/07 06:03:52;;;;;;;;;34.75;30.75;;;;;16.96;78.25;100755.56;5055857;28;45504;-67
2023/06/07 06:06:18;;;;;;;;;27.25;27.00;;;;;17.11;77.48;100766.22;5041270;28;45393;-67
2023/06/07 06:08:44;;;;;;;;;29.00;28.75;;;;;17.19;76.85;100763.91;5041848;28;45505;-66
2023/06/07 06:11:12;;;;;;;;;32.50;31.00;;;;;17.28;76.66;100768.63;5038490;28;46164;-71
2023/06/07 06:13:39;;;;;;;;;32.75;30.75;;;;;17.34;76.38;100770.00;5035919;28;47105;-70
2023/06/07 06:16:05;;;;;;;;;28.50;27.75;;;;;17.36;75.97;100768.97;5046210;28;45481;-67
2023/06/07 06:18:31;;;;;;;;;29.50;29.50;;;;;17.42;75.83;100774.81;5036186;28;45611;-69
2023/06/07 06:20:57;;;;;;;;;31.25;30.50;;;;;17.44;75.84;100778.22;5052248;28;46521;-68
2023/06/07 06:23:23;;;;;;;;;31.50;30.25;;;;;17.45;75.57;100780.78;5053095;28;45419;-66
2023/06/07 06:25:49;;;;;;;;;29.25;29.00;;;;;17.44;75.60;100778.22;5047127;28;45425;-69
2023/06/07 06:28:15;;;;;;;;;31.50;30.75;;;;;17.41;75.31;100781.94;5036147;28;45488;-67
2023/06/07 06:30:40;;;;;;;;;32.75;31.25;;;;;17.45;75.42;100787.91;5037299;28;45570;-67
2023/06/07 06:33:06;;;;;;;;;29.50;29.25;;;;;17.48;75.49;100788.56;5034713;28;45401;-68
2023/06/07 06:35:34;;;;;;;;;33.75;30.50;;;;;17.53;75.36;100790.91;5039440;28;45463;-68
2023/06/07 06:38:00;;;;;;;;;33.00;31.00;;;;;17.51;75.11;100793.69;5054910;28;45352;-69
2023/06/07 06:40:26;;;;;;;;;32.00;30.25;;;;;17.57;74.79;100786.25;5050532;28;46286;-68
2023/06/07 06:42:52;;;;;;;;;31.50;30.50;;;;;17.69;74.81;100790.75;5035175;28;45530;-69
2023/06/07 06:45:17;;;;;;;;;27.75;27.75;;;;;17.81;74.41;100786.41;5040813;28;45360;-69
2023/06/07 06:47:43;;;;;;;;;33.50;32.25;;;;;17.93;74.37;100777.59;5045488;28;45630;-67
2023/06/07 06:50:12;;;;;;;;;34.50;31.75;;;;;18.05;72.84;100775.94;5035272;28;46422;-69
2023/06/07 06:52:39;;;;;;;;;33.25;32.00;;;;;18.12;72.73;100776.38;5035231;28;45522;-67
2023/06/07 06:55:05;;;;;;;;;31.00;29.00;;;;;18.25;72.18;100803.84;5035535;28;45420;-66
2023/06/07 06:57:30;;;;;;;;;31.25;29.25;;;;;18.29;71.60;100793.00;5050244;28;45287;-67
2023/06/07 06:59:56;;;;;;;;;30.00;29.75;;;;;18.39;71.13;100786.91;5055491;28;46466;-68
2023/06/07 07:02:21;;;;;;;;;30.75;30.50;;;;;18.49;70.91;100778.25;5038799;28;45474;-78
2023/06/07 07:04:47;;;;;;;;;29.50;29.50;;;;;18.61;70.66;100787.22;5035382;28;45390;-72
2023/06/07 07:07:12;;;;;;;;;30.50;30.00;;;;;18.71;70.00;100780.25;5049050;28;45633;-77
2023/06/07 07:09:38;;;;;;;;;31.50;29.75;;;;;18.77;69.65;100785.16;5067353;28;47406;-66
2023/06/07 07:12:05;;;;;;;;;30.50;29.00;;;;;18.86;69.06;100791.66;5053487;28;45584;-67
2023/06/07 07:14:30;;;;;;;;;28.25;28.25;;;;;18.92;68.77;100790.34;5051523;28;45578;-67
2023/06/07 07:16:56;;;;;;;;;31.00;30.25;;;;;18.97;68.43;100785.56;5052751;28;45654;-67
2023/06/07 07:19:21;;;;;;;;;31.00;29.25;;;;;19.03;68.49;100787.78;5051559;28;46203;-75
2023/06/07 07:21:46;;;;;;;;;30.25;29.00;;;;;19.15;67.77;100787.88;5053742;28;45489;-70
2023/06/07 07:24:12;;;;;;;;;32.00;30.75;;;;;19.18;67.07;100788.47;5053369;28;46030;-67
2023/06/07 07:26:39;;;;;;;;;30.25;29.25;;;;;19.23;66.70;100794.31;5051513;28;45555;-69
2023/06/07 07:29:04;;;;;;;;;30.50;29.75;;;;;19.30;66.87;100789.41;5047161;28;47276;-67
2023/06/07 07:31:30;;;;;;;;;29.00;29.00;;;;;19.25;66.32;100776.41;5049070;28;45425;-67
2023/06/07 07:33:56;;;;;;;;;30.25;29.25;;;;;19.47;66.02;100788.13;5055320;28;45287;-67
2023/06/07 07:36:23;;;;;;;;;30.50;29.25;;;;;19.63;65.98;100800.34;5054418;28;45562;-70
2023/06/07 07:38:49;;;;;;;;;31.25;30.50;;;;;19.74;65.21;100792.38;5053675;28;46256;-69
2023/06/07 07:41:14;;;;;;;;;29.75;29.00;;;;;19.84;65.20;100796.03;5052883;28;45313;-69
2023/06/07 07:43:40;;;;;;;;;27.50;27.50;;;;;19.96;64.48;100788.94;5053263;28;45597;-67
2023/06/07 07:46:06;;;;;;;;;25.25;25.25;;;;;20.07;64.06;100796.13;5054659;28;45405;-68
2023/06/07 07:48:31;;;;;;;;;28.75;28.25;;;;;20.19;63.46;100791.66;5054029;28;45399;-68
2023/06/07 07:50:56;;;;;;;;;26.00;26.00;;;;;20.32;63.67;100788.03;5054273;28;45318;-68
2023/06/07 07:53:22;;;;;;;;;29.00;28.50;;;;;20.49;63.01;100784.88;5053007;28;46789;-68
2023/06/07 07:55:47;;;;;;;;;32.00;30.00;;;;;20.72;63.13;100790.22;5054380;28;45215;-70
2023/06/07 07:58:13;;;;;;;;;31.00;29.75;;;;;20.93;62.52;100786.81;5054942;28;45352;-70
2023/06/07 08:00:41;;;;;;;;;29.50;27.25;;;;;21.05;61.69;100787.66;5055208;28;45310;-69
2023/06/07 08:03:06;;;;;;;;;27.25;27.25;;;;;21.20;60.53;100793.56;5055558;28;45304;-70
2023/06/07 08:05:31;;;;;;;;;27.00;27.00;;;;;21.25;60.51;100767.31;5055285;28;45502;-70
2023/06/07 08:07:57;;;;;;;;;21.00;20.50;;;;;21.48;59.62;100780.59;5054327;28;53535;-68
2023/06/07 08:10:22;;;;;;;;;26.75;26.75;;;;;21.69;58.55;100777.94;5054510;28;45414;-67
2023/06/07 08:12:48;;;;;;;;;26.25;25.50;;;;;21.87;57.86;100776.41;5054811;28;45267;-69
2023/06/07 08:15:13;;;;;;;;;25.50;25.25;;;;;22.10;57.76;100788.81;5053473;28;45575;-70
2023/06/07 08:17:40;;;;;;;;;26.00;26.00;;;;;22.32;57.12;100779.75;5054804;28;45352;-69
2023/06/07 08:20:08;;;;;;;;;24.50;24.50;;;;;22.56;56.65;100790.22;5054742;28;45293;-68
2023/06/07 08:22:33;;;;;;;;;23.25;23.00;;;;;22.64;53.88;100783.31;5054737;28;45439;-68
2023/06/07 08:24:58;;;;;;;;;31.25;30.00;;;;;22.67;53.65;100793.78;5054628;28;45326;-69
2023/06/07 08:27:23;;;;;;;;;24.50;24.50;;;;;22.65;53.06;100780.47;5053996;28;55477;-68
2023/06/07 08:29:49;;;;;;;;;23.25;23.25;;;;;22.63;53.41;100786.97;5054491;28;45368;-68
2023/06/07 08:32:14;;;;;;;;;25.00;25.00;;;;;22.63;53.19;100790.50;5054644;28;45358;-70
2023/06/07 08:34:40;;;;;;;;;25.25;25.25;;;;;22.64;52.94;100792.19;5055241;28;45517;-69
2023/06/07 08:37:06;;;;;;;;;25.75;25.75;;;;;22.64;53.41;100794.03;5054980;28;45515;-69
2023/06/07 08:39:32;;;;;;;;;23.25;23.25;;;;;22.69;53.78;100797.16;5070106;28;45383;-68
2023/06/07 08:41:57;;;;;;;;;23.75;23.00;;;;;22.74;53.11;100794.91;5054654;28;45298;-69
2023/06/07 08:44:23;;;;;;;;;24.75;24.00;;;;;22.78;52.71;100799.03;5054893;28;45814;-67
2023/06/07 08:46:50;;;;;;;;;41.25;35.75;;;;;22.79;53.43;100798.03;5054206;28;46263;-69
2023/06/07 08:49:16;;;;;;;;;25.25;25.25;;;;;22.74;52.39;100793.06;5058011;28;45218;-69
2023/06/07 08:51:42;;;;;;;;;21.25;21.25;;;;;22.75;52.45;100802.81;5058353;28;45512;-68
2023/06/07 08:54:12;;;;;;;;;23.50;23.00;;;;;22.74;52.97;100798.44;5057966;28;45373;-69
2023/06/07 08:56:38;;;;;;;;;25.50;25.50;;;;;22.75;52.80;100796.63;5057368;28;46123;-69
2023/06/07 08:59:04;;;;;;;;;23.00;23.00;;;;;22.70;53.15;100802.38;5057783;28;45693;-68
2023/06/07 09:01:34;;;;;;;;;26.75;26.75;;;;;22.67;53.46;100799.13;5057482;28;45442;-66
2023/06/07 09:04:00;;;;;;;;;24.75;24.75;;;;;22.65;53.50;100793.06;5057995;28;45467;-67
2023/06/07 09:06:26;;;;;;;;;25.00;25.00;;;;;22.67;52.54;100791.09;5057497;28;45399;-70
2023/06/07 09:08:52;;;;;;;;;23.00;23.00;;;;;22.63;52.77;100786.97;5057786;28;45320;-70
2023/06/07 09:11:18;;;;;;;;;22.25;22.25;;;;;22.63;53.34;100785.13;5073106;27;45452;-70
2023/06/07 09:13:44;;;;;;;;;19.50;19.50;;;;;22.67;53.00;100780.38;5058283;28;45212;-70
2023/06/07 09:16:13;;;;;;;;;24.00;24.00;;;;;22.57;52.23;100769.59;5057598;28;45408;-69
2023/06/07 09:18:42;;;;;;;;;22.75;22.75;;;;;22.67;52.16;100783.88;5056289;28;45404;-68
2023/06/07 09:21:27;;;;;;;;;25.75;25.75;;;;;22.68;52.52;100790.09;5057823;28;45248;-69
2023/06/07 09:23:55;;;;;;;;;22.75;22.75;;;;;22.71;52.00;100787.16;5057992;28;45249;-69
2023/06/07 09:26:25;;;;;;;;;30.75;29.50;;;;;22.65;52.52;100783.16;5056181;28;48302;-70
2023/06/07 09:28:51;;;;;;;;;29.50;28.75;;;;;22.68;52.32;100785.56;5057427;28;45416;-70
2023/06/07 09:31:29;;;;;;;;;25.25;25.25;;;;;22.74;52.73;100784.19;5057868;28;45283;-68
2023/06/07 09:33:56;;;;;;;;;24.00;24.00;;;;;22.81;52.08;100782.66;5057767;28;45437;-69
2023/06/07 09:36:21;;;;;;;;;20.75;20.75;;;;;22.87;52.83;100776.75;5057324;28;45383;-71
2023/06/07 09:38:47;;;;;;;;;26.00;25.25;;;;;22.98;52.29;100775.81;5055882;28;45368;-69
2023/06/07 09:41:13;;;;;;;;;21.25;21.25;;;;;23.06;51.93;100767.03;5056235;28;45223;-68
2023/06/07 09:43:41;;;;;;;;;23.00;23.00;;;;;23.09;52.13;100758.72;5057896;28;45514;-68
2023/06/07 09:46:07;;;;;;;;;18.00;18.00;;;;;23.28;51.28;100778.53;5056911;28;47050;-69
2023/06/07 09:48:48;;;;;;;;;26.50;26.50;;;;;23.38;51.40;100774.03;5055530;28;45386;-70
2023/06/07 09:51:15;;;;;;;;;23.00;23.00;;;;;23.47;51.22;100775.88;5055689;28;45419;-71
2023/06/07 09:53:56;;;;;;;;;25.50;25.50;;;;;23.54;51.10;100764.56;5057007;28;45398;-70
2023/06/07 09:56:23;;;;;;;;;21.25;21.25;;;;;23.62;51.00;100770.06;5056890;28;46245;-69
2023/06/07 09:59:04;;;;;;;;;23.75;23.75;;;;;23.70;50.41;100759.47;5055373;28;45370;-70
2023/06/07 10:01:32;;;;;;;;;26.50;26.50;;;;;23.78;50.46;100762.28;5056723;28;45309;-69
2023/06/07 10:04:00;;;;;;;;;25.25;25.25;;;;;23.84;50.79;100765.38;5056937;28;45722;-67
2023/06/07 10:06:26;;;;;;;;;29.50;28.25;;;;;23.88;50.13;100746.16;5054961;28;48324;-72
2023/06/07 10:08:52;;;;;;;;;32.50;31.00;;;;;23.99;48.79;100745.13;5056502;28;45309;-69
2023/06/07 10:11:18;;;;;;;;;32.00;30.75;;;;;24.04;49.73;100758.16;5056473;28;45324;-67
2023/06/07 10:13:47;;;;;;;;;18.25;18.25;;;;;24.06;49.33;100746.25;5055998;28;45232;-69
2023/06/07 10:16:16;;;;;;;;;20.00;20.00;;;;;24.16;48.90;100754.31;5054815;28;46490;-70
2023/06/07 10:18:42;;;;;;;;;27.00;27.00;;;;;24.19;49.22;100745.94;5054701;28;45570;-69
2023/06/07 10:21:21;;;;;;;;;24.50;23.00;;;;;24.28;49.11;100754.13;5056454;28;45387;-67
2023/06/07 10:23:51;;;;;;;;;24.25;24.25;;;;;24.28;48.87;100749.56;5057236;28;45279;-68
2023/06/07 10:26:29;;;;;;;;;23.00;23.00;;;;;24.31;49.29;100738.53;5072336;28;45566;-68
2023/06/07 10:29:06;;;;;;;;;22.00;22.00;;;;;24.42;48.37;100734.81;5056561;28;45316;-68
2023/06/07 10:31:36;;;;;;;;;24.50;24.50;;;;;24.48;49.09;100726.16;5072160;27;45359;-69
2023/06/07 10:34:07;;;;;;;;;22.25;22.25;;;;;24.64;48.34;100736.28;5056405;28;45624;-72
2023/06/07 10:36:37;;;;;;;;;24.50;24.50;;;;;24.68;48.04;100722.53;5055647;28;45602;-69
2023/06/07 10:39:05;;;;;;;;;25.75;25.75;;;;;24.74;48.11;100716.56;5054447;28;45397;-70
2023/06/07 10:41:32;;;;;;;;;18.75;18.75;;;;;24.78;46.73;100721.47;5056521;28;45247;-70
2023/06/07 10:44:01;;;;;;;;;26.75;26.00;;;;;24.91;46.45;100731.03;5056449;28;45590;-70
2023/06/07 10:46:27;;;;;;;;;27.25;27.00;;;;;24.97;45.85;100726.88;5056492;28;46188;-70
2023/06/07 10:48:54;;;;;;;;;23.75;23.75;;;;;25.00;46.50;100715.81;5056324;28;45356;-68
2023/06/07 10:51:51;;;;;;;;;25.00;25.00;;;;;25.09;47.20;100721.13;5055544;28;45317;-68
2023/06/07 10:54:43;;;;;;;;;20.50;20.00;;;;;25.22;45.88;100725.28;5052781;28;45469;-69
2023/06/07 10:57:09;;;;;;;;;25.00;25.00;;;;;25.25;45.95;100714.22;5069262;27;48248;-68
2023/06/07 10:59:36;;;;;;;;;22.50;22.50;;;;;25.33;46.20;100724.19;5056022;28;45478;-70
2023/06/07 11:02:22;;;;;;;;;23.00;23.00;;;;;25.41;45.45;100718.88;5055965;28;45355;-67
2023/06/07 11:04:48;;;;;;;;;18.75;18.75;;;;;25.46;43.94;100718.44;5056361;28;45399;-69
2023/06/07 11:07:28;;;;;;;;;21.00;20.00;;;;;25.46;44.67;100716.63;5055525;28;47344;-70
2023/06/07 11:10:16;;;;;;;;;20.25;20.25;;;;;25.51;44.73;100699.97;5054815;28;45247;-68